sensor_id;sensor_type;location;lat;lon;timestamp;temperature;humidity
15556;DHT22;7879;48.660;9.116;2022-12-18T00:03:50;-11.70;99.90
15556;DHT22;7879;48.660;9.116;2022-12-18T00:06:18;-11.60;99.90
15556;DHT22;7879;48.660;9.116;2022-12-18T00:08:47;-11.60;99.90
15556;DHT22;7879;48.660;9.116;2022-12-18T00:11:19;-11.70;99.90
15556;DHT22;7879;48.660;9.116;2022-12-18T00:13:47;-11.70;99.90
15556;DHT22;7879;48.660;9.116;2022-12-18T00:16:16;-11.70;99.90
15556;DHT22;7879;48.660;9.116;2022-12-18T00:18:51;-11.70;99.90
15556;DHT22;7879;48.660;9.116;2022-12-18T00:21:19;-11.80;99.90
15556;DHT22;7879;48.660;9.116;2022-12-18T00:23:47;-11.60;99.90
15556;DHT22;7879;48.660;9.116;2022-12-18T00:26:23;-11.60;99.90
15556;DHT22;7879;48.660;9.116;2022-12-18T00:28:51;-11.70;99.90
15556;DHT22;7879;48.660;9.116;2022-12-18T00:31:21;-11.90;99.90
15556;DHT22;7879;48.660;9.116;2022-12-18T00:33:48;-11.90;99.90
15556;DHT22;7879;48.660;9.116;2022-12-18T00:36:26;-11.90;99.90
15556;DHT22;7879;48.660;9.116;2022-12-18T00:38:54;-11.90;99.90
15556;DHT22;7879;48.660;9.116;2022-12-18T00:41:21;-11.70;99.90
15556;DHT22;7879;48.660;9.116;2022-12-18T00:44:09;-11.80;99.90
15556;DHT22;7879;48.660;9.116;2022-12-18T00:46:36;-11.90;99.90
15556;DHT22;7879;48.660;9.116;2022-12-18T00:49:03;-11.90;99.90
15556;DHT22;7879;48.660;9.116;2022-12-18T00:51:30;-12.00;99.90
15556;DHT22;7879;48.660;9.116;2022-12-18T00:53:57;-11.90;99.90
15556;DHT22;7879;48.660;9.116;2022-12-18T00:56:24;-11.90;99.90
15556;DHT22;7879;48.660;9.116;2022-12-18T00:58:51;-12.00;99.90
15556;DHT22;7879;48.660;9.116;2022-12-18T01:01:18;-12.10;99.90
15556;DHT22;7879;48.660;9.116;2022-12-18T01:03:45;-12.00;99.90
15556;DHT22;7879;48.660;9.116;2022-12-18T01:06:14;-12.10;99.90
15556;DHT22;7879;48.660;9.116;2022-12-18T01:08:41;-12.20;99.90
15556;DHT22;7879;48.660;9.116;2022-12-18T01:11:14;-12.20;99.90
15556;DHT22;7879;48.660;9.116;2022-12-18T01:13:41;-12.30;99.90
15556;DHT22;7879;48.660;9.116;2022-12-18T01:16:11;-12.30;99.90
15556;DHT22;7879;48.660;9.116;2022-12-18T01:18:39;-12.30;99.90
15556;DHT22;7879;48.660;9.116;2022-12-18T01:21:10;-12.20;99.90
15556;DHT22;7879;48.660;9.116;2022-12-18T01:23:38;-12.20;99.90
15556;DHT22;7879;48.660;9.116;2022-12-18T01:26:10;-12.30;99.90
15556;DHT22;7879;48.660;9.116;2022-12-18T01:28:38;-12.30;99.90
15556;DHT22;7879;48.660;9.116;2022-12-18T01:31:15;-12.30;99.90
15556;DHT22;7879;48.660;9.116;2022-12-18T01:33:42;-12.20;99.90
15556;DHT22;7879;48.660;9.116;2022-12-18T01:36:15;-12.20;99.90
15556;DHT22;7879;48.660;9.116;2022-12-18T01:38:42;-12.30;99.90
15556;DHT22;7879;48.660;9.116;2022-12-18T01:41:09;-12.50;99.90
15556;DHT22;7879;48.660;9.116;2022-12-18T01:43:48;-12.40;99.90
15556;DHT22;7879;48.660;9.116;2022-12-18T01:46:17;-12.30;99.90
15556;DHT22;7879;48.660;9.116;2022-12-18T01:48:47;-12.10;99.90
15556;DHT22;7879;48.660;9.116;2022-12-18T01:51:14;-12.30;99.90
15556;DHT22;7879;48.660;9.116;2022-12-18T01:53:42;-12.30;99.90
15556;DHT22;7879;48.660;9.116;2022-12-18T01:56:14;-12.30;99.90
15556;DHT22;7879;48.660;9.116;2022-12-18T01:58:46;-12.40;99.90
15556;DHT22;7879;48.660;9.116;2022-12-18T02:01:15;-12.30;99.90
15556;DHT22;7879;48.660;9.116;2022-12-18T02:03:45;-12.30;99.90
15556;DHT22;7879;48.660;9.116;2022-12-18T02:06:24;-12.30;99.90
15556;DHT22;7879;48.660;9.116;2022-12-18T02:16:59;-12.10;99.90
15556;DHT22;7879;48.660;9.116;2022-12-18T02:19:44;-12.10;99.90
15556;DHT22;7879;48.660;9.116;2022-12-18T02:22:38;-12.10;99.90
15556;DHT22;7879;48.660;9.116;2022-12-18T02:27:40;-12.10;99.90
15556;DHT22;7879;48.660;9.116;2022-12-18T02:30:08;-12.20;99.90
15556;DHT22;7879;48.660;9.116;2022-12-18T02:32:38;-12.30;99.90
15556;DHT22;7879;48.660;9.116;2022-12-18T02:35:11;-12.20;99.90
15556;DHT22;7879;48.660;9.116;2022-12-18T02:37:39;-12.20;99.90
15556;DHT22;7879;48.660;9.116;2022-12-18T02:40:08;-12.10;99.90
15556;DHT22;7879;48.660;9.116;2022-12-18T02:42:35;-12.10;99.90
15556;DHT22;7879;48.660;9.116;2022-12-18T02:45:05;-12.10;99.90
15556;DHT22;7879;48.660;9.116;2022-12-18T02:47:36;-12.10;99.90
15556;DHT22;7879;48.660;9.116;2022-12-18T02:52:55;-12.20;99.90
15556;DHT22;7879;48.660;9.116;2022-12-18T02:56:06;-12.20;99.90
15556;DHT22;7879;48.660;9.116;2022-12-18T02:58:59;-12.30;99.90
15556;DHT22;7879;48.660;9.116;2022-12-18T03:04:07;-12.40;99.90
15556;DHT22;7879;48.660;9.116;2022-12-18T03:06:44;-12.40;99.90
15556;DHT22;7879;48.660;9.116;2022-12-18T03:09:19;-12.50;99.90
15556;DHT22;7879;48.660;9.116;2022-12-18T03:11:55;-12.50;99.90
15556;DHT22;7879;48.660;9.116;2022-12-18T03:14:43;-12.50;99.90
15556;DHT22;7879;48.660;9.116;2022-12-18T03:17:15;-12.50;99.90
15556;DHT22;7879;48.660;9.116;2022-12-18T03:19:47;-12.40;99.90
15556;DHT22;7879;48.660;9.116;2022-12-18T03:22:15;-12.30;99.90
15556;DHT22;7879;48.660;9.116;2022-12-18T03:24:42;-12.40;99.90
15556;DHT22;7879;48.660;9.116;2022-12-18T03:27:15;-12.50;99.90
15556;DHT22;7879;48.660;9.116;2022-12-18T03:29:50;-12.40;99.90
15556;DHT22;7879;48.660;9.116;2022-12-18T03:32:29;-12.40;99.90
15556;DHT22;7879;48.660;9.116;2022-12-18T03:35:13;-12.40;99.90
15556;DHT22;7879;48.660;9.116;2022-12-18T03:37:40;-12.50;99.90
15556;DHT22;7879;48.660;9.116;2022-12-18T03:40:09;-12.50;99.90
15556;DHT22;7879;48.660;9.116;2022-12-18T03:42:51;-12.50;99.90
15556;DHT22;7879;48.660;9.116;2022-12-18T03:45:28;-12.40;99.90
15556;DHT22;7879;48.660;9.116;2022-12-18T03:48:16;-12.30;99.90
15556;DHT22;7879;48.660;9.116;2022-12-18T03:50:57;-12.40;99.90
15556;DHT22;7879;48.660;9.116;2022-12-18T03:53:32;-12.40;99.90
15556;DHT22;7879;48.660;9.116;2022-12-18T03:56:04;-12.30;99.90
15556;DHT22;7879;48.660;9.116;2022-12-18T03:58:33;-12.40;99.90
15556;DHT22;7879;48.660;9.116;2022-12-18T04:01:05;-12.30;99.90
15556;DHT22;7879;48.660;9.116;2022-12-18T04:03:34;-12.30;99.90
15556;DHT22;7879;48.660;9.116;2022-12-18T04:06:02;-12.30;99.90
15556;DHT22;7879;48.660;9.116;2022-12-18T04:08:31;-12.30;99.90
15556;DHT22;7879;48.660;9.116;2022-12-18T04:10:58;-12.50;99.90
15556;DHT22;7879;48.660;9.116;2022-12-18T04:13:32;-12.50;99.90
15556;DHT22;7879;48.660;9.116;2022-12-18T04:15:59;-12.60;99.90
15556;DHT22;7879;48.660;9.116;2022-12-18T04:18:26;-12.50;99.90
15556;DHT22;7879;48.660;9.116;2022-12-18T04:20:53;-12.50;99.90
15556;DHT22;7879;48.660;9.116;2022-12-18T04:23:21;-12.70;99.90
15556;DHT22;7879;48.660;9.116;2022-12-18T04:25:48;-12.70;99.90
15556;DHT22;7879;48.660;9.116;2022-12-18T04:28:15;-12.70;99.90
15556;DHT22;7879;48.660;9.116;2022-12-18T04:30:42;-12.70;99.90
15556;DHT22;7879;48.660;9.116;2022-12-18T04:33:12;-12.60;99.90
15556;DHT22;7879;48.660;9.116;2022-12-18T04:35:41;-12.60;99.90
15556;DHT22;7879;48.660;9.116;2022-12-18T04:38:08;-12.70;99.90
15556;DHT22;7879;48.660;9.116;2022-12-18T04:40:37;-12.70;99.90
15556;DHT22;7879;48.660;9.116;2022-12-18T04:43:04;-12.60;99.90
15556;DHT22;7879;48.660;9.116;2022-12-18T04:45:32;-12.70;99.90
15556;DHT22;7879;48.660;9.116;2022-12-18T04:48:00;-12.80;99.90
15556;DHT22;7879;48.660;9.116;2022-12-18T04:50:27;-12.80;99.90
15556;DHT22;7879;48.660;9.116;2022-12-18T04:52:54;-12.80;99.90
15556;DHT22;7879;48.660;9.116;2022-12-18T04:55:24;-12.70;99.90
15556;DHT22;7879;48.660;9.116;2022-12-18T04:57:50;-12.80;99.90
15556;DHT22;7879;48.660;9.116;2022-12-18T05:00:17;-12.80;99.90
15556;DHT22;7879;48.660;9.116;2022-12-18T05:02:44;-12.90;99.90
15556;DHT22;7879;48.660;9.116;2022-12-18T05:05:11;-12.90;99.90
15556;DHT22;7879;48.660;9.116;2022-12-18T05:07:38;-12.80;99.90
15556;DHT22;7879;48.660;9.116;2022-12-18T05:10:08;-12.80;99.90
15556;DHT22;7879;48.660;9.116;2022-12-18T05:12:36;-12.70;99.90
15556;DHT22;7879;48.660;9.116;2022-12-18T05:15:23;-12.80;99.90
15556;DHT22;7879;48.660;9.116;2022-12-18T05:17:49;-12.80;99.90
15556;DHT22;7879;48.660;9.116;2022-12-18T05:20:16;-12.70;99.90
15556;DHT22;7879;48.660;9.116;2022-12-18T05:22:44;-12.80;99.90
15556;DHT22;7879;48.660;9.116;2022-12-18T05:25:11;-12.90;99.90
15556;DHT22;7879;48.660;9.116;2022-12-18T05:27:38;-12.80;99.90
15556;DHT22;7879;48.660;9.116;2022-12-18T05:30:05;-12.80;99.90
15556;DHT22;7879;48.660;9.116;2022-12-18T05:32:32;-12.90;99.90
15556;DHT22;7879;48.660;9.116;2022-12-18T05:34:58;-12.90;99.90
15556;DHT22;7879;48.660;9.116;2022-12-18T05:37:25;-13.10;99.90
15556;DHT22;7879;48.660;9.116;2022-12-18T05:39:52;-13.10;99.90
15556;DHT22;7879;48.660;9.116;2022-12-18T05:42:19;-13.20;99.90
15556;DHT22;7879;48.660;9.116;2022-12-18T05:44:46;-13.20;99.90
15556;DHT22;7879;48.660;9.116;2022-12-18T05:47:12;-13.30;99.90
15556;DHT22;7879;48.660;9.116;2022-12-18T05:49:39;-13.30;99.90
15556;DHT22;7879;48.660;9.116;2022-12-18T05:52:06;-13.20;99.90
15556;DHT22;7879;48.660;9.116;2022-12-18T05:54:33;-13.10;99.90
15556;DHT22;7879;48.660;9.116;2022-12-18T05:57:00;-13.10;99.90
15556;DHT22;7879;48.660;9.116;2022-12-18T05:59:27;-13.20;99.90
15556;DHT22;7879;48.660;9.116;2022-12-18T06:01:53;-13.30;99.90
15556;DHT22;7879;48.660;9.116;2022-12-18T06:04:20;-13.20;99.90
15556;DHT22;7879;48.660;9.116;2022-12-18T06:06:47;-13.10;99.90
15556;DHT22;7879;48.660;9.116;2022-12-18T06:09:14;-13.10;99.90
15556;DHT22;7879;48.660;9.116;2022-12-18T06:11:40;-13.00;99.90
15556;DHT22;7879;48.660;9.116;2022-12-18T06:14:08;-13.00;99.90
15556;DHT22;7879;48.660;9.116;2022-12-18T06:16:36;-13.00;99.90
15556;DHT22;7879;48.660;9.116;2022-12-18T06:19:05;-12.90;99.90
15556;DHT22;7879;48.660;9.116;2022-12-18T06:21:32;-12.90;99.90
15556;DHT22;7879;48.660;9.116;2022-12-18T06:24:00;-13.00;99.90
15556;DHT22;7879;48.660;9.116;2022-12-18T06:26:27;-13.10;99.90
15556;DHT22;7879;48.660;9.116;2022-12-18T06:28:54;-13.00;99.90
15556;DHT22;7879;48.660;9.116;2022-12-18T06:31:21;-13.00;99.90
15556;DHT22;7879;48.660;9.116;2022-12-18T06:33:48;-13.10;99.90
15556;DHT22;7879;48.660;9.116;2022-12-18T06:36:15;-13.20;99.90
15556;DHT22;7879;48.660;9.116;2022-12-18T06:38:43;-13.20;99.90
15556;DHT22;7879;48.660;9.116;2022-12-18T06:41:15;-13.20;99.90
15556;DHT22;7879;48.660;9.116;2022-12-18T06:43:43;-13.20;99.90
15556;DHT22;7879;48.660;9.116;2022-12-18T06:46:11;-13.30;99.90
15556;DHT22;7879;48.660;9.116;2022-12-18T06:48:38;-13.30;99.90
15556;DHT22;7879;48.660;9.116;2022-12-18T06:51:05;-13.50;99.90
15556;DHT22;7879;48.660;9.116;2022-12-18T06:53:32;-13.40;99.90
15556;DHT22;7879;48.660;9.116;2022-12-18T06:56:01;-13.40;99.90
15556;DHT22;7879;48.660;9.116;2022-12-18T06:58:35;-13.30;99.90
15556;DHT22;7879;48.660;9.116;2022-12-18T07:01:04;-13.40;99.90
15556;DHT22;7879;48.660;9.116;2022-12-18T07:03:32;-13.40;99.90
15556;DHT22;7879;48.660;9.116;2022-12-18T07:05:58;-13.50;99.90
15556;DHT22;7879;48.660;9.116;2022-12-18T07:08:25;-13.40;99.90
15556;DHT22;7879;48.660;9.116;2022-12-18T07:10:53;-13.40;99.90
15556;DHT22;7879;48.660;9.116;2022-12-18T07:13:22;-13.40;99.90
15556;DHT22;7879;48.660;9.116;2022-12-18T07:15:49;-13.50;99.90
15556;DHT22;7879;48.660;9.116;2022-12-18T07:18:16;-13.60;99.90
15556;DHT22;7879;48.660;9.116;2022-12-18T07:20:42;-13.50;99.90
15556;DHT22;7879;48.660;9.116;2022-12-18T07:23:11;-13.50;99.90
15556;DHT22;7879;48.660;9.116;2022-12-18T07:25:38;-13.50;99.90
15556;DHT22;7879;48.660;9.116;2022-12-18T07:28:05;-13.50;99.90
15556;DHT22;7879;48.660;9.116;2022-12-18T07:30:37;-13.70;99.90
15556;DHT22;7879;48.660;9.116;2022-12-18T07:33:04;-13.70;99.90
15556;DHT22;7879;48.660;9.116;2022-12-18T07:35:32;-13.80;99.90
15556;DHT22;7879;48.660;9.116;2022-12-18T07:37:59;-13.70;99.90
15556;DHT22;7879;48.660;9.116;2022-12-18T07:40:26;-13.60;99.90
15556;DHT22;7879;48.660;9.116;2022-12-18T07:42:53;-13.60;99.90
15556;DHT22;7879;48.660;9.116;2022-12-18T07:45:19;-13.60;99.90
15556;DHT22;7879;48.660;9.116;2022-12-18T07:47:46;-13.60;99.90
15556;DHT22;7879;48.660;9.116;2022-12-18T07:50:13;-13.50;99.90
15556;DHT22;7879;48.660;9.116;2022-12-18T07:52:40;-13.40;99.90
15556;DHT22;7879;48.660;9.116;2022-12-18T07:55:07;-13.50;99.90
15556;DHT22;7879;48.660;9.116;2022-12-18T07:57:34;-13.50;99.90
15556;DHT22;7879;48.660;9.116;2022-12-18T08:00:18;-13.50;99.90
15556;DHT22;7879;48.660;9.116;2022-12-18T08:02:47;-13.40;99.90
15556;DHT22;7879;48.660;9.116;2022-12-18T08:05:14;-13.50;99.90
15556;DHT22;7879;48.660;9.116;2022-12-18T08:07:41;-13.30;99.90
15556;DHT22;7879;48.660;9.116;2022-12-18T08:10:08;-13.30;99.90
15556;DHT22;7879;48.660;9.116;2022-12-18T08:12:35;-13.40;99.90
15556;DHT22;7879;48.660;9.116;2022-12-18T08:15:01;-13.30;99.90
15556;DHT22;7879;48.660;9.116;2022-12-18T08:17:29;-13.30;99.90
15556;DHT22;7879;48.660;9.116;2022-12-18T08:19:55;-13.10;99.90
15556;DHT22;7879;48.660;9.116;2022-12-18T08:22:22;-13.10;99.90
15556;DHT22;7879;48.660;9.116;2022-12-18T08:24:49;-13.00;99.90
15556;DHT22;7879;48.660;9.116;2022-12-18T08:27:15;-12.90;99.90
15556;DHT22;7879;48.660;9.116;2022-12-18T08:29:58;-12.90;99.90
15556;DHT22;7879;48.660;9.116;2022-12-18T08:32:26;-12.80;99.90
15556;DHT22;7879;48.660;9.116;2022-12-18T08:34:53;-12.80;99.90
15556;DHT22;7879;48.660;9.116;2022-12-18T08:37:20;-12.80;99.90
15556;DHT22;7879;48.660;9.116;2022-12-18T08:39:47;-12.70;99.90
15556;DHT22;7879;48.660;9.116;2022-12-18T08:42:14;-12.70;99.90
15556;DHT22;7879;48.660;9.116;2022-12-18T08:44:59;-12.50;99.90
15556;DHT22;7879;48.660;9.116;2022-12-18T08:47:26;-12.40;99.90
15556;DHT22;7879;48.660;9.116;2022-12-18T08:49:52;-12.30;99.90
15556;DHT22;7879;48.660;9.116;2022-12-18T08:52:19;-12.10;99.90
15556;DHT22;7879;48.660;9.116;2022-12-18T08:54:46;-11.90;99.90
15556;DHT22;7879;48.660;9.116;2022-12-18T08:57:13;-11.70;99.90
15556;DHT22;7879;48.660;9.116;2022-12-18T08:59:39;-11.60;99.90
15556;DHT22;7879;48.660;9.116;2022-12-18T09:02:07;-11.40;99.90
15556;DHT22;7879;48.660;9.116;2022-12-18T09:04:34;-11.30;99.90
15556;DHT22;7879;48.660;9.116;2022-12-18T09:07:01;-11.10;99.90
15556;DHT22;7879;48.660;9.116;2022-12-18T09:09:28;-10.90;99.90
15556;DHT22;7879;48.660;9.116;2022-12-18T09:11:55;-10.80;99.90
15556;DHT22;7879;48.660;9.116;2022-12-18T09:14:21;-10.60;99.90
15556;DHT22;7879;48.660;9.116;2022-12-18T09:16:48;-10.50;99.90
15556;DHT22;7879;48.660;9.116;2022-12-18T09:19:15;-10.30;99.90
15556;DHT22;7879;48.660;9.116;2022-12-18T09:21:42;-10.10;99.90
15556;DHT22;7879;48.660;9.116;2022-12-18T09:24:16;-9.90;99.90
15556;DHT22;7879;48.660;9.116;2022-12-18T09:26:44;-9.60;99.90
15556;DHT22;7879;48.660;9.116;2022-12-18T09:29:13;-9.50;99.90
15556;DHT22;7879;48.660;9.116;2022-12-18T09:31:41;-9.20;99.90
15556;DHT22;7879;48.660;9.116;2022-12-18T09:34:08;-9.00;99.90
15556;DHT22;7879;48.660;9.116;2022-12-18T09:36:35;-8.80;99.90
15556;DHT22;7879;48.660;9.116;2022-12-18T09:39:02;-8.60;99.90
15556;DHT22;7879;48.660;9.116;2022-12-18T09:41:43;-8.30;99.90
15556;DHT22;7879;48.660;9.116;2022-12-18T09:47:14;-7.80;99.90
15556;DHT22;7879;48.660;9.116;2022-12-18T09:49:46;-7.50;99.90
15556;DHT22;7879;48.660;9.116;2022-12-18T09:55:21;-7.00;99.90
15556;DHT22;7879;48.660;9.116;2022-12-18T09:57:52;-6.80;99.90
15556;DHT22;7879;48.660;9.116;2022-12-18T10:00:23;-6.50;99.90
15556;DHT22;7879;48.660;9.116;2022-12-18T10:02:52;-6.40;99.90
15556;DHT22;7879;48.660;9.116;2022-12-18T10:06:15;-6.10;99.90
15556;DHT22;7879;48.660;9.116;2022-12-18T10:19:45;-5.30;99.90
15556;DHT22;7879;48.660;9.116;2022-12-18T10:25:49;-4.90;99.90
15556;DHT22;7879;48.660;9.116;2022-12-18T10:28:18;-4.60;99.90
15556;DHT22;7879;48.660;9.116;2022-12-18T10:30:46;-4.40;99.90
15556;DHT22;7879;48.660;9.116;2022-12-18T10:33:24;-4.20;99.90
15556;DHT22;7879;48.660;9.116;2022-12-18T10:35:51;-4.10;99.90
15556;DHT22;7879;48.660;9.116;2022-12-18T10:40:55;-3.70;99.90
15556;DHT22;7879;48.660;9.116;2022-12-18T10:43:39;-3.70;99.90
15556;DHT22;7879;48.660;9.116;2022-12-18T10:51:06;-3.20;99.90
15556;DHT22;7879;48.660;9.116;2022-12-18T10:53:40;-3.20;99.90
15556;DHT22;7879;48.660;9.116;2022-12-18T10:56:08;-3.30;99.90
15556;DHT22;7879;48.660;9.116;2022-12-18T10:58:37;-3.20;99.90
15556;DHT22;7879;48.660;9.116;2022-12-18T11:01:08;-3.00;99.90
15556;DHT22;7879;48.660;9.116;2022-12-18T11:03:43;-2.90;99.90
15556;DHT22;7879;48.660;9.116;2022-12-18T11:06:16;-2.90;99.90
15556;DHT22;7879;48.660;9.116;2022-12-18T11:09:00;-2.70;99.90
15556;DHT22;7879;48.660;9.116;2022-12-18T11:11:32;-2.60;99.90
15556;DHT22;7879;48.660;9.116;2022-12-18T11:16:33;-2.50;99.90
15556;DHT22;7879;48.660;9.116;2022-12-18T11:19:21;-2.30;99.90
15556;DHT22;7879;48.660;9.116;2022-12-18T11:21:51;-2.20;99.90
15556;DHT22;7879;48.660;9.116;2022-12-18T11:26:52;-2.40;99.90
15556;DHT22;7879;48.660;9.116;2022-12-18T11:29:32;-2.40;99.90
15556;DHT22;7879;48.660;9.116;2022-12-18T11:38:04;-2.20;99.90
15556;DHT22;7879;48.660;9.116;2022-12-18T11:40:37;-2.10;99.90
15556;DHT22;7879;48.660;9.116;2022-12-18T11:43:15;-2.00;99.90
15556;DHT22;7879;48.660;9.116;2022-12-18T11:46:17;-2.10;99.90
15556;DHT22;7879;48.660;9.116;2022-12-18T11:49:07;-2.10;99.90
15556;DHT22;7879;48.660;9.116;2022-12-18T11:51:51;-2.20;99.90
15556;DHT22;7879;48.660;9.116;2022-12-18T11:54:21;-2.30;99.90
15556;DHT22;7879;48.660;9.116;2022-12-18T12:08:11;-2.60;99.90
15556;DHT22;7879;48.660;9.116;2022-12-18T12:11:07;-2.70;99.90
15556;DHT22;7879;48.660;9.116;2022-12-18T12:13:56;-2.70;99.90
15556;DHT22;7879;48.660;9.116;2022-12-18T12:33:17;-2.90;99.90
15556;DHT22;7879;48.660;9.116;2022-12-18T12:38:19;-2.90;99.90
15556;DHT22;7879;48.660;9.116;2022-12-18T12:41:00;-2.80;99.90
15556;DHT22;7879;48.660;9.116;2022-12-18T12:43:50;-2.80;99.90
15556;DHT22;7879;48.660;9.116;2022-12-18T12:46:19;-2.80;99.90
15556;DHT22;7879;48.660;9.116;2022-12-18T12:48:49;-2.70;99.90
15556;DHT22;7879;48.660;9.116;2022-12-18T12:51:36;-2.70;99.90
15556;DHT22;7879;48.660;9.116;2022-12-18T12:54:08;-2.70;99.90
15556;DHT22;7879;48.660;9.116;2022-12-18T12:59:15;-2.70;99.90
15556;DHT22;7879;48.660;9.116;2022-12-18T13:02:23;-2.70;99.90
15556;DHT22;7879;48.660;9.116;2022-12-18T13:05:21;-2.70;99.90
15556;DHT22;7879;48.660;9.116;2022-12-18T13:07:59;-2.60;99.90
15556;DHT22;7879;48.660;9.116;2022-12-18T13:10:36;-2.60;99.90
15556;DHT22;7879;48.660;9.116;2022-12-18T13:13:24;-2.50;99.90
15556;DHT22;7879;48.660;9.116;2022-12-18T13:16:07;-2.50;99.90
15556;DHT22;7879;48.660;9.116;2022-12-18T13:18:34;-2.50;99.90
15556;DHT22;7879;48.660;9.116;2022-12-18T13:21:20;-2.40;99.90
15556;DHT22;7879;48.660;9.116;2022-12-18T13:23:48;-2.40;99.90
15556;DHT22;7879;48.660;9.116;2022-12-18T13:28:54;-2.40;99.90
15556;DHT22;7879;48.660;9.116;2022-12-18T13:34:19;-2.30;99.90
15556;DHT22;7879;48.660;9.116;2022-12-18T13:36:54;-2.40;99.90
15556;DHT22;7879;48.660;9.116;2022-12-18T13:39:32;-2.40;99.90
15556;DHT22;7879;48.660;9.116;2022-12-18T13:44:39;-2.50;99.90
15556;DHT22;7879;48.660;9.116;2022-12-18T13:47:27;-2.50;99.90
15556;DHT22;7879;48.660;9.116;2022-12-18T13:49:57;-2.50;99.90
15556;DHT22;7879;48.660;9.116;2022-12-18T13:52:33;-2.50;99.90
15556;DHT22;7879;48.660;9.116;2022-12-18T13:55:05;-2.60;99.90
15556;DHT22;7879;48.660;9.116;2022-12-18T13:57:35;-2.60;99.90
15556;DHT22;7879;48.660;9.116;2022-12-18T14:00:25;-2.60;99.90
15556;DHT22;7879;48.660;9.116;2022-12-18T14:02:52;-2.70;99.90
15556;DHT22;7879;48.660;9.116;2022-12-18T14:05:30;-2.60;99.90
15556;DHT22;7879;48.660;9.116;2022-12-18T14:08:05;-2.60;99.90
15556;DHT22;7879;48.660;9.116;2022-12-18T14:10:33;-2.60;99.90
15556;DHT22;7879;48.660;9.116;2022-12-18T14:13:22;-2.60;99.90
15556;DHT22;7879;48.660;9.116;2022-12-18T14:15:50;-2.60;99.90
15556;DHT22;7879;48.660;9.116;2022-12-18T14:18:21;-2.60;99.90
15556;DHT22;7879;48.660;9.116;2022-12-18T14:20:50;-2.70;99.90
15556;DHT22;7879;48.660;9.116;2022-12-18T14:25:58;-2.80;99.90
15556;DHT22;7879;48.660;9.116;2022-12-18T14:28:31;-2.80;99.90
15556;DHT22;7879;48.660;9.116;2022-12-18T14:30:58;-2.70;99.90
15556;DHT22;7879;48.660;9.116;2022-12-18T14:33:27;-2.80;99.90
15556;DHT22;7879;48.660;9.116;2022-12-18T14:35:57;-2.80;99.90
15556;DHT22;7879;48.660;9.116;2022-12-18T14:38:36;-2.80;99.90
15556;DHT22;7879;48.660;9.116;2022-12-18T14:41:16;-2.90;99.90
15556;DHT22;7879;48.660;9.116;2022-12-18T14:43:45;-3.00;99.90
15556;DHT22;7879;48.660;9.116;2022-12-18T14:46:38;-3.00;99.90
15556;DHT22;7879;48.660;9.116;2022-12-18T14:49:33;-3.00;99.90
15556;DHT22;7879;48.660;9.116;2022-12-18T14:52:27;-3.10;99.90
15556;DHT22;7879;48.660;9.116;2022-12-18T14:54:55;-3.10;99.90
15556;DHT22;7879;48.660;9.116;2022-12-18T14:57:24;-3.20;99.90
15556;DHT22;7879;48.660;9.116;2022-12-18T14:59:53;-3.20;99.90
15556;DHT22;7879;48.660;9.116;2022-12-18T15:02:23;-3.20;99.90
15556;DHT22;7879;48.660;9.116;2022-12-18T15:05:14;-3.30;99.90
15556;DHT22;7879;48.660;9.116;2022-12-18T15:07:51;-3.30;99.90
15556;DHT22;7879;48.660;9.116;2022-12-18T15:10:21;-3.40;99.90
15556;DHT22;7879;48.660;9.116;2022-12-18T15:20:59;-3.50;99.90
15556;DHT22;7879;48.660;9.116;2022-12-18T15:23:49;-3.50;99.90
15556;DHT22;7879;48.660;9.116;2022-12-18T15:26:21;-3.60;99.90
15556;DHT22;7879;48.660;9.116;2022-12-18T15:28:51;-3.60;99.90
15556;DHT22;7879;48.660;9.116;2022-12-18T15:31:28;-3.70;99.90
15556;DHT22;7879;48.660;9.116;2022-12-18T15:36:23;-3.70;99.90
15556;DHT22;7879;48.660;9.116;2022-12-18T15:38:54;-3.80;99.90
15556;DHT22;7879;48.660;9.116;2022-12-18T15:41:32;-3.90;99.90
15556;DHT22;7879;48.660;9.116;2022-12-18T15:44:02;-3.90;99.90
15556;DHT22;7879;48.660;9.116;2022-12-18T15:46:29;-3.90;99.90
15556;DHT22;7879;48.660;9.116;2022-12-18T15:48:58;-3.90;99.90
15556;DHT22;7879;48.660;9.116;2022-12-18T15:51:34;-3.90;99.90
15556;DHT22;7879;48.660;9.116;2022-12-18T15:54:05;-3.90;99.90
15556;DHT22;7879;48.660;9.116;2022-12-18T15:56:32;-4.00;99.90
15556;DHT22;7879;48.660;9.116;2022-12-18T15:59:19;-4.00;99.90
15556;DHT22;7879;48.660;9.116;2022-12-18T16:01:48;-4.10;99.90
15556;DHT22;7879;48.660;9.116;2022-12-18T16:04:18;-4.10;99.90
15556;DHT22;7879;48.660;9.116;2022-12-18T16:06:48;-4.00;99.90
15556;DHT22;7879;48.660;9.116;2022-12-18T16:09:36;-4.10;99.90
15556;DHT22;7879;48.660;9.116;2022-12-18T16:12:04;-4.10;99.90
15556;DHT22;7879;48.660;9.116;2022-12-18T16:14:31;-4.20;99.90
15556;DHT22;7879;48.660;9.116;2022-12-18T16:17:00;-4.20;99.90
15556;DHT22;7879;48.660;9.116;2022-12-18T16:19:28;-4.30;99.90
15556;DHT22;7879;48.660;9.116;2022-12-18T16:21:57;-4.40;99.90
15556;DHT22;7879;48.660;9.116;2022-12-18T16:24:26;-4.50;99.90
15556;DHT22;7879;48.660;9.116;2022-12-18T16:26:55;-4.50;99.90
15556;DHT22;7879;48.660;9.116;2022-12-18T16:29:26;-4.60;99.90
15556;DHT22;7879;48.660;9.116;2022-12-18T16:31:55;-4.50;99.90
15556;DHT22;7879;48.660;9.116;2022-12-18T16:34:22;-4.60;99.90
15556;DHT22;7879;48.660;9.116;2022-12-18T16:36:59;-4.50;99.90
15556;DHT22;7879;48.660;9.116;2022-12-18T16:39:34;-4.50;99.90
15556;DHT22;7879;48.660;9.116;2022-12-18T16:42:03;-4.60;99.90
15556;DHT22;7879;48.660;9.116;2022-12-18T16:44:32;-4.60;99.90
15556;DHT22;7879;48.660;9.116;2022-12-18T16:46:59;-4.70;99.90
15556;DHT22;7879;48.660;9.116;2022-12-18T16:49:29;-4.70;99.90
15556;DHT22;7879;48.660;9.116;2022-12-18T16:51:56;-4.70;99.90
15556;DHT22;7879;48.660;9.116;2022-12-18T16:54:23;-4.70;99.90
15556;DHT22;7879;48.660;9.116;2022-12-18T16:56:50;-4.70;99.90
15556;DHT22;7879;48.660;9.116;2022-12-18T16:59:18;-4.70;99.90
15556;DHT22;7879;48.660;9.116;2022-12-18T17:01:45;-4.80;99.90
15556;DHT22;7879;48.660;9.116;2022-12-18T17:06:47;-4.80;99.90
15556;DHT22;7879;48.660;9.116;2022-12-18T17:09:18;-4.70;99.90
15556;DHT22;7879;48.660;9.116;2022-12-18T17:11:53;-4.70;99.90
15556;DHT22;7879;48.660;9.116;2022-12-18T17:14:22;-4.70;99.90
15556;DHT22;7879;48.660;9.116;2022-12-18T17:16:49;-4.70;99.90
15556;DHT22;7879;48.660;9.116;2022-12-18T17:19:36;-4.70;99.90
15556;DHT22;7879;48.660;9.116;2022-12-18T17:22:04;-4.70;99.90
15556;DHT22;7879;48.660;9.116;2022-12-18T17:24:30;-4.80;99.90
15556;DHT22;7879;48.660;9.116;2022-12-18T17:27:01;-4.70;99.90
15556;DHT22;7879;48.660;9.116;2022-12-18T17:29:29;-4.60;99.90
15556;DHT22;7879;48.660;9.116;2022-12-18T17:31:56;-4.60;99.90
15556;DHT22;7879;48.660;9.116;2022-12-18T17:34:26;-4.60;99.90
15556;DHT22;7879;48.660;9.116;2022-12-18T17:36:53;-4.60;99.90
15556;DHT22;7879;48.660;9.116;2022-12-18T17:39:21;-4.60;99.90
15556;DHT22;7879;48.660;9.116;2022-12-18T17:41:48;-4.60;99.90
15556;DHT22;7879;48.660;9.116;2022-12-18T17:44:16;-4.60;99.90
15556;DHT22;7879;48.660;9.116;2022-12-18T17:46:43;-4.60;99.90
15556;DHT22;7879;48.660;9.116;2022-12-18T17:49:11;-4.50;99.90
15556;DHT22;7879;48.660;9.116;2022-12-18T17:51:39;-4.50;99.90
15556;DHT22;7879;48.660;9.116;2022-12-18T17:54:08;-4.50;99.90
15556;DHT22;7879;48.660;9.116;2022-12-18T17:56:35;-4.50;99.90
15556;DHT22;7879;48.660;9.116;2022-12-18T17:59:03;-4.50;99.90